createdAt,value
2023-04-13T00:00:32.018Z,0.00
2023-04-13T00:01:31.999Z,0.00
2023-04-13T00:02:32.082Z,0.00
2023-04-13T00:03:32.153Z,0.00
2023-04-13T00:04:31.985Z,0.00
2023-04-13T00:05:31.970Z,0.00
2023-04-13T00:06:31.947Z,0.00
2023-04-13T00:07:31.930Z,0.00
2023-04-13T00:08:31.923Z,0.00
2023-04-13T00:09:31.936Z,0.00
2023-04-13T00:10:31.902Z,0.00
2023-04-13T00:11:31.900Z,0.00
2023-04-13T00:12:31.872Z,0.00
2023-04-13T00:13:31.887Z,0.00
2023-04-13T00:14:31.854Z,0.00
2023-04-13T00:15:31.877Z,0.00
2023-04-13T00:16:31.951Z,0.00
2023-04-13T00:17:31.832Z,0.00
2023-04-13T00:18:31.825Z,0.00
2023-04-13T00:19:31.804Z,0.00
2023-04-13T00:20:31.785Z,0.00
2023-04-13T00:21:31.792Z,0.00
2023-04-13T00:22:31.764Z,0.00
2023-04-13T00:23:31.784Z,0.00
2023-04-13T00:24:31.747Z,0.00
2023-04-13T00:25:31.740Z,0.00
2023-04-13T00:26:31.747Z,0.00
2023-04-13T00:27:31.711Z,0.00
2023-04-13T00:28:31.699Z,0.00
2023-04-13T00:29:31.714Z,0.00
2023-04-13T00:30:31.718Z,0.00
2023-04-13T00:31:31.758Z,0.00
2023-04-13T00:32:31.657Z,0.00
2023-04-13T00:33:31.651Z,0.00
2023-04-13T00:34:31.662Z,0.00
2023-04-13T00:35:31.628Z,0.00
2023-04-13T00:36:31.614Z,0.00
2023-04-13T00:37:31.609Z,0.00
2023-04-13T00:38:31.596Z,0.00
2023-04-13T00:39:31.612Z,0.00
2023-04-13T00:40:31.599Z,0.00
2023-04-13T00:41:31.586Z,0.00
2023-04-13T00:42:31.551Z,0.00
2023-04-13T00:43:31.544Z,0.00
2023-04-13T00:44:31.537Z,0.00
2023-04-13T00:45:31.545Z,0.00
2023-04-13T00:46:31.569Z,0.00
2023-04-13T00:47:31.530Z,0.00
2023-04-13T00:48:31.482Z,0.00
2023-04-13T00:49:31.486Z,0.00
2023-04-13T00:50:31.481Z,0.00
2023-04-13T00:51:31.452Z,0.00
2023-04-13T00:52:31.439Z,0.00
2023-04-13T00:53:31.430Z,0.00
2023-04-13T00:54:31.445Z,0.00
2023-04-13T00:55:31.410Z,0.00
2023-04-13T00:56:31.407Z,0.00
2023-04-13T00:57:31.391Z,0.00
2023-04-13T00:58:31.376Z,0.00
2023-04-13T00:59:31.380Z,0.00
2023-04-13T01:00:31.357Z,0.00
2023-04-13T01:01:31.364Z,0.00
2023-04-13T01:02:31.472Z,0.00
2023-04-13T01:03:31.426Z,0.00
2023-04-13T01:04:31.353Z,0.00
2023-04-13T01:05:31.324Z,0.00
2023-04-13T01:06:31.285Z,0.00
2023-04-13T01:07:31.274Z,0.00
2023-04-13T01:08:31.266Z,0.00
2023-04-13T01:09:31.277Z,0.00
2023-04-13T01:10:31.265Z,0.00
2023-04-13T01:11:31.239Z,0.00
2023-04-13T01:12:31.218Z,0.00
2023-04-13T01:13:31.227Z,0.00
2023-04-13T01:14:31.228Z,0.00
2023-04-13T01:15:31.194Z,0.00
2023-04-13T01:16:31.254Z,0.00
2023-04-13T01:17:31.190Z,0.00
2023-04-13T01:18:31.152Z,0.00
2023-04-13T01:19:31.167Z,0.00
2023-04-13T01:20:31.151Z,0.00
2023-04-13T01:21:31.128Z,0.00
2023-04-13T01:22:31.125Z,0.00
2023-04-13T01:23:31.143Z,0.00
2023-04-13T01:24:31.096Z,0.00
2023-04-13T01:25:31.103Z,0.00
2023-04-13T01:26:31.064Z,0.00
2023-04-13T01:27:31.057Z,0.00
2023-04-13T01:28:31.047Z,0.00
2023-04-13T01:29:31.035Z,0.00
2023-04-13T01:30:31.040Z,0.00
2023-04-13T01:31:31.029Z,0.00
2023-04-13T01:32:31.045Z,0.00
2023-04-13T01:33:31.044Z,0.00
2023-04-13T01:34:30.975Z,0.00
2023-04-13T01:35:31.060Z,0.00
2023-04-13T01:36:30.956Z,0.00
2023-04-13T01:37:30.943Z,0.00
2023-04-13T01:38:30.935Z,0.00
2023-04-13T01:39:30.922Z,0.00
2023-04-13T01:40:30.952Z,0.00
2023-04-13T01:41:30.904Z,0.00
2023-04-13T01:42:30.895Z,0.00
2023-04-13T01:43:30.977Z,0.00
2023-04-13T01:44:30.904Z,0.00
2023-04-13T01:45:30.888Z,0.00
2023-04-13T01:46:30.960Z,0.00
2023-04-13T01:47:30.992Z,0.00
2023-04-13T01:48:30.895Z,0.00
2023-04-13T01:49:30.850Z,0.00
2023-04-13T01:50:30.908Z,0.00
2023-04-13T01:51:30.896Z,0.00
2023-04-13T01:52:30.796Z,0.00
2023-04-13T01:53:30.775Z,0.00
2023-04-13T01:54:30.757Z,0.00
2023-04-13T01:55:30.771Z,0.00
2023-04-13T01:56:30.738Z,0.00
2023-04-13T01:57:30.762Z,0.00
2023-04-13T01:58:30.710Z,0.00
2023-04-13T01:59:30.710Z,0.00
2023-04-13T02:00:30.693Z,0.00
2023-04-13T02:01:30.708Z,0.00
2023-04-13T02:02:30.838Z,0.00
2023-04-13T02:03:30.754Z,0.00
2023-04-13T02:04:30.642Z,0.00
2023-04-13T02:05:30.642Z,0.00
2023-04-13T02:06:30.643Z,0.00
2023-04-13T02:07:30.632Z,0.00
2023-04-13T02:08:31.617Z,0.00
2023-04-13T02:09:30.594Z,0.00
2023-04-13T02:10:30.577Z,0.00
2023-04-13T02:11:30.589Z,0.00
2023-04-13T02:12:30.552Z,0.00
2023-04-13T02:13:30.567Z,0.00
2023-04-13T02:14:30.535Z,0.00
2023-04-13T02:15:30.529Z,0.00
2023-04-13T02:16:30.535Z,0.00
2023-04-13T02:17:30.522Z,0.00
2023-04-13T02:18:30.530Z,0.00
2023-04-13T02:19:30.482Z,0.00
2023-04-13T02:20:30.466Z,0.00
2023-04-13T02:21:30.466Z,0.00
2023-04-13T02:22:30.450Z,0.00
2023-04-13T02:23:30.497Z,0.00
2023-04-13T02:24:30.466Z,0.00
2023-04-13T02:25:30.418Z,0.00
2023-04-13T02:26:30.404Z,0.00
2023-04-13T02:27:30.391Z,0.00
2023-04-13T02:28:30.408Z,0.00
2023-04-13T02:29:30.370Z,0.00
2023-04-13T02:30:30.363Z,0.00
2023-04-13T02:31:30.356Z,0.00
2023-04-13T02:32:30.333Z,0.00
2023-04-13T02:33:30.321Z,0.00
2023-04-13T02:34:30.340Z,0.00
2023-04-13T02:35:30.334Z,0.00
2023-04-13T02:36:30.300Z,0.00
2023-04-13T02:37:30.289Z,0.00
2023-04-13T02:38:30.279Z,0.00
2023-04-13T02:39:30.296Z,0.00
2023-04-13T02:40:30.253Z,0.00
2023-04-13T02:41:30.236Z,0.00
2023-04-13T02:42:30.227Z,0.00
2023-04-13T02:43:30.237Z,0.00
2023-04-13T02:44:30.222Z,0.00
2023-04-13T02:45:30.228Z,0.00
2023-04-13T02:46:32.637Z,0.00
2023-04-13T02:47:30.212Z,0.00
2023-04-13T02:48:30.181Z,0.00
2023-04-13T02:49:30.146Z,0.00
2023-04-13T02:50:30.147Z,0.00
2023-04-13T02:51:30.124Z,0.00
2023-04-13T02:52:30.121Z,0.00
2023-04-13T02:53:30.117Z,0.00
2023-04-13T02:54:30.095Z,0.00
2023-04-13T02:55:30.120Z,0.00
2023-04-13T02:56:30.078Z,0.00
2023-04-13T02:57:30.054Z,0.00
2023-04-13T02:58:30.072Z,0.00
2023-04-13T02:59:30.033Z,0.00
2023-04-13T03:00:30.028Z,0.00
2023-04-13T03:01:30.027Z,0.00
2023-04-13T03:02:30.165Z,0.00
2023-04-13T03:03:30.127Z,0.00
2023-04-13T03:04:30.044Z,0.00
2023-04-13T03:05:29.970Z,0.00
2023-04-13T03:06:29.960Z,0.00
2023-04-13T03:07:29.975Z,0.00
2023-04-13T03:08:29.940Z,0.00
2023-04-13T03:09:29.925Z,0.00
2023-04-13T03:10:29.912Z,0.00
2023-04-13T03:11:29.927Z,0.00
2023-04-13T03:12:29.922Z,0.00
2023-04-13T03:13:29.885Z,0.00
2023-04-13T03:14:29.963Z,0.00
2023-04-13T03:15:29.868Z,0.00
2023-04-13T03:16:29.909Z,0.00
2023-04-13T03:17:29.870Z,0.00
2023-04-13T03:18:29.826Z,0.00
2023-04-13T03:19:29.840Z,0.00
2023-04-13T03:20:29.808Z,0.00
2023-04-13T03:21:29.797Z,0.00
2023-04-13T03:22:29.789Z,0.00
2023-04-13T03:23:29.776Z,0.00
2023-04-13T03:24:29.788Z,0.00
2023-04-13T03:25:31.311Z,0.00
2023-04-13T03:26:29.745Z,0.00
2023-04-13T03:27:29.758Z,0.00
2023-04-13T03:28:29.725Z,0.00
2023-04-13T03:29:29.737Z,0.00
2023-04-13T03:30:29.700Z,0.00
2023-04-13T03:31:29.736Z,0.00
2023-04-13T03:32:29.717Z,0.00
2023-04-13T03:33:29.670Z,0.00
2023-04-13T03:34:29.687Z,0.00
2023-04-13T03:35:29.645Z,0.00
2023-04-13T03:36:29.658Z,0.00
2023-04-13T03:37:29.620Z,0.00
2023-04-13T03:38:29.618Z,0.00
2023-04-13T03:39:29.631Z,0.00
2023-04-13T03:40:29.609Z,0.00
2023-04-13T03:41:29.578Z,0.00
2023-04-13T03:42:29.571Z,0.00
2023-04-13T03:43:29.577Z,0.00
2023-04-13T03:44:29.553Z,0.00
2023-04-13T03:45:29.558Z,0.00
2023-04-13T03:46:29.608Z,0.00
2023-04-13T03:47:29.524Z,0.00
2023-04-13T03:48:29.516Z,0.00
2023-04-13T03:49:29.520Z,0.00
2023-04-13T03:50:29.483Z,0.00
2023-04-13T03:51:29.474Z,0.00
2023-04-13T03:52:29.463Z,0.00
2023-04-13T03:53:29.449Z,0.00
2023-04-13T03:54:29.468Z,0.00
2023-04-13T03:55:29.433Z,0.00
2023-04-13T03:56:29.423Z,0.00
2023-04-13T03:57:29.412Z,0.00
2023-04-13T03:58:29.402Z,0.00
2023-04-13T03:59:29.396Z,0.00
2023-04-13T04:00:29.394Z,0.00
2023-04-13T04:01:29.378Z,0.00
2023-04-13T04:02:29.624Z,0.00
2023-04-13T04:03:29.412Z,4.00
2023-04-13T04:04:29.367Z,4.00
2023-04-13T04:05:29.315Z,0.00
2023-04-13T04:06:29.338Z,0.00
2023-04-13T04:07:29.304Z,0.00
2023-04-13T04:08:29.295Z,4.00
2023-04-13T04:09:29.273Z,4.00
2023-04-13T04:10:29.269Z,4.00
2023-04-13T04:11:29.288Z,4.00
2023-04-13T04:12:29.252Z,4.00
2023-04-13T04:13:29.240Z,4.00
2023-04-13T04:14:29.233Z,4.00
2023-04-13T04:15:29.244Z,8.00
2023-04-13T04:16:29.302Z,8.00
2023-04-13T04:17:29.193Z,8.00
2023-04-13T04:18:29.178Z,12.00
2023-04-13T04:19:29.159Z,8.00
2023-04-13T04:20:29.153Z,12.00
2023-04-13T04:21:29.181Z,12.00
2023-04-13T04:22:29.135Z,12.00
2023-04-13T04:23:29.127Z,16.00
2023-04-13T04:24:29.108Z,20.00
2023-04-13T04:25:29.100Z,20.00
2023-04-13T04:26:29.116Z,20.00
2023-04-13T04:27:29.075Z,24.00
2023-04-13T04:28:29.070Z,24.00
2023-04-13T04:29:29.060Z,24.00
2023-04-13T04:30:29.048Z,24.00
2023-04-13T04:31:29.123Z,24.00
2023-04-13T04:32:29.089Z,24.00
2023-04-13T04:33:29.027Z,24.00
2023-04-13T04:34:29.012Z,24.00
2023-04-13T04:35:29.018Z,24.00
2023-04-13T04:36:28.975Z,24.00
2023-04-13T04:37:28.975Z,24.00
2023-04-13T04:38:28.965Z,28.00
2023-04-13T04:39:28.947Z,32.00
2023-04-13T04:40:28.960Z,28.00
2023-04-13T04:41:28.930Z,32.00
2023-04-13T04:42:28.931Z,40.00
2023-04-13T04:43:28.900Z,40.00
2023-04-13T04:44:28.902Z,48.00
2023-04-13T04:45:28.927Z,56.00
2023-04-13T04:46:28.888Z,56.00
2023-04-13T04:47:28.908Z,60.00
2023-04-13T04:48:28.848Z,64.00
2023-04-13T04:49:28.845Z,60.00
2023-04-13T04:50:28.857Z,60.00
2023-04-13T04:51:28.841Z,52.00
2023-04-13T04:52:28.808Z,52.00
2023-04-13T04:53:28.794Z,52.00
2023-04-13T04:54:28.785Z,48.00
2023-04-13T04:55:28.795Z,48.00
2023-04-13T04:56:28.762Z,52.00
2023-04-13T04:57:29.756Z,52.00
2023-04-13T04:58:28.772Z,56.00
2023-04-13T04:59:28.726Z,56.00
2023-04-13T05:00:28.730Z,56.00
2023-04-13T05:01:28.735Z,52.00
2023-04-13T05:02:28.778Z,52.00
2023-04-13T05:03:28.759Z,52.00
2023-04-13T05:04:28.697Z,56.00
2023-04-13T05:05:28.681Z,56.00
2023-04-13T05:06:28.651Z,56.00
2023-04-13T05:07:28.641Z,56.00
2023-04-13T05:08:28.650Z,60.00
2023-04-13T05:09:28.646Z,60.00
2023-04-13T05:10:28.606Z,68.00
2023-04-13T05:11:28.590Z,72.00
2023-04-13T05:12:28.587Z,76.00
2023-04-13T05:13:28.569Z,80.00
2023-04-13T05:14:28.588Z,88.00
2023-04-13T05:15:28.546Z,96.00
2023-04-13T05:16:28.608Z,104.00
2023-04-13T05:17:28.554Z,116.00
2023-04-13T05:18:28.536Z,124.00
2023-04-13T05:19:28.552Z,132.00
2023-04-13T05:20:28.499Z,140.00
2023-04-13T05:21:28.509Z,152.00
2023-04-13T05:22:28.478Z,172.00
2023-04-13T05:23:28.463Z,192.00
2023-04-13T05:24:28.486Z,216.00
2023-04-13T05:25:28.438Z,228.00
2023-04-13T05:26:28.429Z,232.00
2023-04-13T05:27:28.424Z,232.00
2023-04-13T05:28:28.411Z,224.00
2023-04-13T05:29:28.422Z,216.00
2023-04-13T05:30:28.405Z,204.00
2023-04-13T05:31:28.436Z,196.00
2023-04-13T05:32:28.407Z,200.00
2023-04-13T05:33:28.357Z,212.00
2023-04-13T05:34:28.364Z,228.00
2023-04-13T05:35:28.414Z,236.00
2023-04-13T05:36:28.329Z,248.00
2023-04-13T05:37:28.331Z,260.00
2023-04-13T05:38:28.303Z,268.00
2023-04-13T05:39:28.294Z,276.00
2023-04-13T05:40:28.310Z,272.00
2023-04-13T05:41:28.277Z,276.00
2023-04-13T05:42:28.263Z,280.00
2023-04-13T05:43:28.266Z,276.00
2023-04-13T05:44:28.246Z,248.00
2023-04-13T05:45:28.296Z,236.00
2023-04-13T05:46:28.209Z,224.00
2023-04-13T05:47:28.239Z,216.00
2023-04-13T05:48:28.195Z,204.00
2023-04-13T05:49:28.177Z,200.00
2023-04-13T05:50:28.196Z,196.00
2023-04-13T05:51:28.188Z,192.00
2023-04-13T05:52:28.153Z,184.00
2023-04-13T05:53:28.136Z,184.00
2023-04-13T05:54:28.123Z,188.00
2023-04-13T05:55:28.139Z,208.00
2023-04-13T05:56:28.109Z,212.00
2023-04-13T05:57:28.095Z,208.00
2023-04-13T05:58:28.076Z,220.00
2023-04-13T05:59:28.064Z,244.00
2023-04-13T06:00:28.095Z,256.00
2023-04-13T06:01:28.049Z,260.00
2023-04-13T06:02:28.192Z,280.00
2023-04-13T06:03:28.262Z,312.00
2023-04-13T06:04:28.242Z,332.00
2023-04-13T06:05:28.042Z,320.00
2023-04-13T06:06:27.991Z,304.00
2023-04-13T06:07:28.021Z,300.00
2023-04-13T06:08:29.324Z,300.00
2023-04-13T06:09:27.974Z,304.00
2023-04-13T06:10:27.964Z,316.00
2023-04-13T06:11:27.929Z,328.00
2023-04-13T06:12:27.926Z,332.00
2023-04-13T06:13:27.910Z,328.00
2023-04-13T06:14:27.953Z,332.00
2023-04-13T06:15:27.928Z,332.00
2023-04-13T06:16:27.912Z,324.00
2023-04-13T06:17:27.893Z,320.00
2023-04-13T06:18:27.860Z,320.00
2023-04-13T06:19:28.995Z,328.00
2023-04-13T06:20:27.859Z,336.00
2023-04-13T06:21:27.824Z,340.00
2023-04-13T06:22:27.817Z,344.00
2023-04-13T06:23:27.834Z,340.00
2023-04-13T06:24:27.793Z,336.00
2023-04-13T06:25:27.807Z,340.00
2023-04-13T06:26:27.770Z,348.00
2023-04-13T06:27:27.756Z,356.00
2023-04-13T06:28:27.757Z,360.00
2023-04-13T06:29:27.732Z,364.00
2023-04-13T06:30:27.752Z,368.00
2023-04-13T06:31:28.042Z,368.00
2023-04-13T06:32:27.751Z,372.00
2023-04-13T06:33:27.702Z,368.00
2023-04-13T06:34:27.685Z,368.00
2023-04-13T06:35:27.690Z,372.00
2023-04-13T06:36:27.665Z,372.00
2023-04-13T06:37:27.653Z,376.00
2023-04-13T06:38:27.644Z,384.00
2023-04-13T06:39:28.748Z,392.00
2023-04-13T06:40:27.655Z,400.00
2023-04-13T06:41:27.607Z,408.00
2023-04-13T06:42:27.590Z,416.00
2023-04-13T06:43:29.842Z,420.00
2023-04-13T06:44:27.588Z,424.00
2023-04-13T06:45:27.587Z,424.00
2023-04-13T06:46:27.604Z,436.00
2023-04-13T06:47:27.577Z,440.00
2023-04-13T06:48:27.528Z,448.00
2023-04-13T06:49:27.514Z,452.00
2023-04-13T06:50:27.559Z,468.00
2023-04-13T06:51:27.490Z,484.00
2023-04-13T06:52:27.487Z,492.00
2023-04-13T06:53:27.474Z,504.00
2023-04-13T06:54:27.487Z,520.00
2023-04-13T06:55:27.495Z,532.00
2023-04-13T06:56:27.436Z,540.00
2023-04-13T06:57:27.436Z,540.00
2023-04-13T06:58:27.453Z,540.00
2023-04-13T06:59:27.404Z,536.00
2023-04-13T07:00:30.036Z,536.00
2023-04-13T07:01:27.459Z,528.00
2023-04-13T07:02:27.507Z,528.00
2023-04-13T07:03:27.493Z,532.00
2023-04-13T07:04:29.690Z,532.00
2023-04-13T07:05:27.344Z,524.00
2023-04-13T07:06:27.331Z,516.00
2023-04-13T07:07:27.345Z,504.00
2023-04-13T07:08:27.313Z,496.00
2023-04-13T07:09:27.312Z,492.00
2023-04-13T07:10:27.372Z,496.00
2023-04-13T07:11:27.307Z,500.00
2023-04-13T07:12:27.283Z,500.00
2023-04-13T07:13:27.252Z,508.00
2023-04-13T07:14:27.253Z,504.00
2023-04-13T07:15:27.266Z,496.00
2023-04-13T07:16:27.353Z,480.00
2023-04-13T07:17:27.225Z,468.00
2023-04-13T07:18:27.198Z,456.00
2023-04-13T07:19:27.194Z,468.00
2023-04-13T07:20:27.202Z,472.00
2023-04-13T07:21:27.169Z,456.00
2023-04-13T07:22:27.169Z,448.00
2023-04-13T07:23:27.149Z,452.00
2023-04-13T07:24:28.702Z,452.00
2023-04-13T07:25:27.164Z,468.00
2023-04-13T07:26:27.117Z,480.00
2023-04-13T07:27:27.122Z,488.00
2023-04-13T07:28:27.086Z,504.00
2023-04-13T07:29:27.098Z,528.00
2023-04-13T07:30:27.082Z,544.00
2023-04-13T07:31:27.126Z,548.00
2023-04-13T07:32:30.926Z,532.00
2023-04-13T07:33:27.060Z,520.00
2023-04-13T07:34:27.032Z,496.00
2023-04-13T07:35:27.025Z,488.00
2023-04-13T07:36:27.003Z,476.00
2023-04-13T07:37:27.027Z,480.00
2023-04-13T07:38:26.978Z,504.00
2023-04-13T07:39:26.977Z,540.00
2023-04-13T07:40:26.954Z,576.00
2023-04-13T07:41:26.941Z,620.00
2023-04-13T07:42:26.965Z,660.00
2023-04-13T07:43:27.026Z,696.00
2023-04-13T07:44:27.022Z,728.00
2023-04-13T07:45:26.902Z,772.00
2023-04-13T07:46:26.981Z,820.00
2023-04-13T07:47:26.970Z,872.00
2023-04-13T07:48:26.893Z,904.00
2023-04-13T07:49:26.862Z,916.00
2023-04-13T07:50:26.845Z,920.00
2023-04-13T07:51:26.873Z,932.00
2023-04-13T07:52:26.854Z,936.00
2023-04-13T07:53:26.821Z,944.00
2023-04-13T07:54:26.801Z,948.00
2023-04-13T07:55:26.797Z,924.00
2023-04-13T07:56:26.776Z,844.00
2023-04-13T07:57:26.867Z,776.00
2023-04-13T07:58:26.772Z,776.00
2023-04-13T07:59:26.787Z,828.00
2023-04-13T08:00:26.732Z,880.00
2023-04-13T08:01:26.726Z,932.00
2023-04-13T08:02:26.778Z,944.00
2023-04-13T08:03:26.884Z,920.00
2023-04-13T08:04:26.867Z,912.00
2023-04-13T08:05:26.828Z,908.00
2023-04-13T08:06:26.665Z,956.00
2023-04-13T08:07:26.753Z,1016.00
2023-04-13T08:08:26.668Z,1088.00
2023-04-13T08:09:26.644Z,1120.00
2023-04-13T08:10:26.636Z,1148.00
2023-04-13T08:11:26.622Z,1184.00
2023-04-13T08:12:26.608Z,1232.00
2023-04-13T08:13:26.620Z,1340.00
2023-04-13T08:14:26.584Z,1500.00
2023-04-13T08:15:26.602Z,1468.00
2023-04-13T08:16:26.590Z,1432.00
2023-04-13T08:17:26.659Z,1508.00
2023-04-13T08:18:26.550Z,1460.00
2023-04-13T08:19:26.532Z,1356.00
2023-04-13T08:20:26.519Z,1328.00
2023-04-13T08:21:26.511Z,1460.00
2023-04-13T08:22:26.532Z,1696.00
2023-04-13T08:23:26.485Z,1768.00
2023-04-13T08:24:26.496Z,1844.00
2023-04-13T08:25:26.468Z,2548.00
2023-04-13T08:26:26.462Z,2476.00
2023-04-13T08:27:26.458Z,2476.00
2023-04-13T08:28:26.432Z,3872.00
2023-04-13T08:29:26.463Z,4096.00
2023-04-13T08:30:26.428Z,3532.00
2023-04-13T08:31:26.477Z,3780.00
2023-04-13T08:32:26.422Z,4184.00
2023-04-13T08:33:26.406Z,3268.00
2023-04-13T08:34:26.397Z,2916.00
2023-04-13T08:35:26.357Z,2976.00
2023-04-13T08:36:26.352Z,2624.00
2023-04-13T08:37:26.347Z,2316.00
2023-04-13T08:38:26.360Z,1896.00
2023-04-13T08:39:26.317Z,1720.00
2023-04-13T08:40:26.307Z,1512.00
2023-04-13T08:41:26.294Z,1408.00
2023-04-13T08:42:27.085Z,1532.00
2023-04-13T08:43:26.277Z,1368.00
2023-04-13T08:44:26.275Z,1332.00
2023-04-13T08:45:26.268Z,1388.00
2023-04-13T08:46:26.313Z,1432.00
2023-04-13T08:47:26.258Z,1488.00
2023-04-13T08:48:26.226Z,1580.00
2023-04-13T08:49:26.232Z,1696.00
2023-04-13T08:50:26.193Z,1696.00
2023-04-13T08:51:26.181Z,1744.00
2023-04-13T08:52:26.168Z,1748.00
2023-04-13T08:53:26.164Z,1700.00
2023-04-13T08:54:26.165Z,1588.00
2023-04-13T08:55:26.138Z,1480.00
2023-04-13T08:56:37.752Z,1292.00
2023-04-13T08:57:27.134Z,1112.00
2023-04-13T08:58:26.105Z,988.00
2023-04-13T08:59:26.116Z,908.00
2023-04-13T09:00:26.076Z,860.00
2023-04-13T09:01:26.114Z,816.00
2023-04-13T09:02:26.228Z,792.00
2023-04-13T09:03:26.308Z,736.00
2023-04-13T09:04:26.239Z,696.00
2023-04-13T09:05:26.056Z,676.00
2023-04-13T09:06:26.004Z,688.00
2023-04-13T09:07:26.046Z,748.00
2023-04-13T09:08:26.844Z,880.00
2023-04-13T09:09:25.982Z,1036.00
2023-04-13T09:10:25.994Z,1228.00
2023-04-13T09:11:25.956Z,1424.00
2023-04-13T09:12:25.972Z,1528.00
2023-04-13T09:13:25.946Z,1516.00
2023-04-13T09:14:25.925Z,1560.00
2023-04-13T09:15:25.936Z,1684.00
2023-04-13T09:16:25.919Z,1784.00
2023-04-13T09:17:26.115Z,1860.00
2023-04-13T09:18:25.904Z,1876.00
2023-04-13T09:19:25.923Z,1940.00
2023-04-13T09:20:25.872Z,2012.00
2023-04-13T09:21:25.845Z,2036.00
2023-04-13T09:22:25.846Z,2172.00
2023-04-13T09:23:25.828Z,2320.00
2023-04-13T09:24:25.824Z,2604.00
2023-04-13T09:25:25.834Z,2584.00
2023-04-13T09:26:25.854Z,2772.00
2023-04-13T09:27:25.784Z,2964.00
2023-04-13T09:28:25.769Z,3220.00
2023-04-13T09:29:25.763Z,4268.00
2023-04-13T09:30:25.766Z,3424.00
2023-04-13T09:31:25.782Z,3604.00
2023-04-13T09:32:25.855Z,4196.00
2023-04-13T09:33:25.749Z,3604.00
2023-04-13T09:34:25.709Z,2864.00
2023-04-13T09:35:25.724Z,2568.00
2023-04-13T09:36:25.684Z,2740.00
2023-04-13T09:37:25.677Z,2940.00
2023-04-13T09:38:25.686Z,2440.00
2023-04-13T09:39:25.656Z,1820.00
2023-04-13T09:40:25.642Z,1476.00
2023-04-13T09:41:25.632Z,1208.00
2023-04-13T09:42:25.620Z,1208.00
2023-04-13T09:43:25.632Z,1456.00
2023-04-13T09:44:25.602Z,2000.00
2023-04-13T09:45:25.591Z,2236.00
2023-04-13T09:46:25.586Z,3020.00
2023-04-13T09:47:25.593Z,2260.00
2023-04-13T09:48:25.571Z,3808.00
2023-04-13T09:49:25.580Z,6100.00
2023-04-13T09:50:25.559Z,8480.00
2023-04-13T09:51:25.549Z,7248.00
2023-04-13T09:52:25.515Z,4248.00
2023-04-13T09:53:25.502Z,8124.00
2023-04-13T09:54:25.524Z,4776.00
2023-04-13T09:55:25.479Z,8936.00
2023-04-13T09:56:25.470Z,8716.00
2023-04-13T09:57:25.456Z,10184.00
2023-04-13T09:58:25.570Z,4592.00
2023-04-13T09:59:25.457Z,12264.00
2023-04-13T10:00:25.418Z,12356.00
2023-04-13T10:01:25.609Z,8076.00
2023-04-13T10:02:25.566Z,7148.00
2023-04-13T10:03:25.523Z,7224.00
2023-04-13T10:04:25.409Z,3524.00
2023-04-13T10:05:27.571Z,3768.00
2023-04-13T10:06:25.356Z,6008.00
2023-04-13T10:07:25.368Z,9552.00
2023-04-13T10:08:36.709Z,7280.00
2023-04-13T10:09:26.346Z,6284.00
2023-04-13T10:10:25.315Z,6504.00
2023-04-13T10:11:25.304Z,9068.00
2023-04-13T10:12:25.320Z,6332.00
2023-04-13T10:13:25.654Z,10560.00
2023-04-13T10:14:25.266Z,4052.00
2023-04-13T10:15:25.256Z,4460.00
2023-04-13T10:16:25.338Z,2036.00
2023-04-13T10:17:25.473Z,12772.00
2023-04-13T10:18:25.359Z,2928.00
2023-04-13T10:19:25.224Z,3428.00
2023-04-13T10:20:27.199Z,6008.00
2023-04-13T10:21:25.192Z,1728.00
2023-04-13T10:22:25.199Z,1152.00
2023-04-13T10:23:25.196Z,1032.00
2023-04-13T10:24:25.172Z,1096.00
2023-04-13T10:25:33.240Z,1048.00
2023-04-13T10:26:25.160Z,2212.00
2023-04-13T10:27:25.130Z,6444.00
2023-04-13T10:28:26.269Z,1468.00
2023-04-13T10:29:25.107Z,1388.00
2023-04-13T10:30:25.116Z,1784.00
2023-04-13T10:31:25.096Z,1700.00
2023-04-13T10:32:25.114Z,1572.00
2023-04-13T10:33:25.057Z,956.00
2023-04-13T10:34:25.045Z,856.00
2023-04-13T10:35:25.060Z,4252.00
2023-04-13T10:36:25.015Z,2260.00
2023-04-13T10:37:25.015Z,1440.00
2023-04-13T10:38:25.005Z,2220.00
2023-04-13T10:39:25.014Z,1524.00
2023-04-13T10:40:25.021Z,2304.00
2023-04-13T10:41:24.999Z,1840.00
2023-04-13T10:42:24.961Z,3716.00
2023-04-13T10:43:24.943Z,8292.00
2023-04-13T10:44:24.936Z,2596.00
2023-04-13T10:45:24.917Z,6980.00
2023-04-13T10:46:24.963Z,6804.00
2023-04-13T10:47:27.816Z,5532.00
2023-04-13T10:48:24.888Z,1916.00
2023-04-13T10:49:24.876Z,1344.00
2023-04-13T10:50:24.925Z,1080.00
2023-04-13T10:51:24.879Z,964.00
2023-04-13T10:52:24.839Z,904.00
2023-04-13T10:53:26.745Z,660.00
2023-04-13T10:54:24.817Z,616.00
2023-04-13T10:55:24.869Z,604.00
2023-04-13T10:56:24.798Z,588.00
2023-04-13T10:57:24.799Z,628.00
2023-04-13T10:58:24.775Z,816.00
2023-04-13T10:59:24.768Z,1032.00
2023-04-13T11:00:34.727Z,1148.00
2023-04-13T11:01:25.771Z,1428.00
2023-04-13T11:02:24.842Z,1460.00
2023-04-13T11:03:24.826Z,1264.00
2023-04-13T11:04:24.854Z,1028.00
2023-04-13T11:05:24.697Z,976.00
2023-04-13T11:06:24.708Z,1060.00
2023-04-13T11:07:24.706Z,1252.00
2023-04-13T11:08:24.685Z,4724.00
2023-04-13T11:09:24.665Z,1164.00
2023-04-13T11:10:24.652Z,848.00
2023-04-13T11:11:24.750Z,804.00
2023-04-13T11:12:25.770Z,752.00
2023-04-13T11:13:25.654Z,768.00
2023-04-13T11:14:24.641Z,1104.00
2023-04-13T11:15:24.957Z,932.00
2023-04-13T11:16:25.733Z,804.00
2023-04-13T11:17:24.767Z,716.00
2023-04-13T11:18:24.565Z,816.00
2023-04-13T11:19:24.552Z,10808.00
2023-04-13T11:20:24.569Z,1872.00
2023-04-13T11:21:24.524Z,1336.00
2023-04-13T11:22:24.533Z,1220.00
2023-04-13T11:23:24.734Z,3632.00
2023-04-13T11:24:24.491Z,1260.00
2023-04-13T11:25:24.521Z,856.00
2023-04-13T11:26:24.469Z,672.00
2023-04-13T11:27:24.488Z,580.00
2023-04-13T11:28:24.450Z,604.00
2023-04-13T11:29:24.434Z,712.00
2023-04-13T11:30:24.426Z,712.00
2023-04-13T11:31:24.441Z,604.00
2023-04-13T11:32:24.550Z,584.00
2023-04-13T11:33:24.390Z,900.00
2023-04-13T11:34:24.384Z,1288.00
2023-04-13T11:35:24.401Z,2476.00
2023-04-13T11:36:24.397Z,3124.00
2023-04-13T11:37:24.352Z,2980.00
2023-04-13T11:38:24.337Z,3968.00
2023-04-13T11:39:24.326Z,3140.00
2023-04-13T11:40:24.315Z,1968.00
2023-04-13T11:41:24.317Z,1636.00
2023-04-13T11:42:24.332Z,1280.00
2023-04-13T11:43:24.300Z,968.00
2023-04-13T11:44:24.269Z,748.00
2023-04-13T11:45:24.262Z,684.00
2023-04-13T11:46:24.275Z,644.00
2023-04-13T11:47:24.331Z,624.00
2023-04-13T11:48:24.239Z,684.00
2023-04-13T11:49:24.213Z,1012.00
2023-04-13T11:50:24.250Z,1100.00
2023-04-13T11:51:24.198Z,1136.00
2023-04-13T11:52:24.215Z,1184.00
2023-04-13T11:53:24.169Z,1368.00
2023-04-13T11:54:24.168Z,1800.00
2023-04-13T11:55:24.420Z,2128.00
2023-04-13T11:56:24.148Z,2064.00
2023-04-13T11:57:24.165Z,2524.00
2023-04-13T11:58:24.140Z,2292.00
2023-04-13T11:59:24.154Z,1860.00
2023-04-13T12:00:24.481Z,1288.00
2023-04-13T12:01:26.613Z,1516.00
2023-04-13T12:02:29.499Z,1312.00
2023-04-13T12:03:38.584Z,1152.00
2023-04-13T12:04:25.321Z,904.00
2023-04-13T12:05:24.265Z,824.00
2023-04-13T12:06:24.523Z,752.00
2023-04-13T12:07:24.413Z,844.00
2023-04-13T12:08:24.619Z,912.00
2023-04-13T12:09:33.905Z,988.00
2023-04-13T12:10:27.448Z,884.00
2023-04-13T12:14:12.023Z,1444.00
2023-04-13T12:15:25.190Z,2044.00
2023-04-13T12:16:13.305Z,1772.00
2023-04-13T12:17:18.308Z,1624.00
2023-04-13T12:19:07.141Z,1192.00
2023-04-13T12:20:07.560Z,1256.00
2023-04-13T12:21:06.644Z,1244.00
2023-04-13T12:22:07.182Z,1312.00
2023-04-13T12:23:15.579Z,1356.00
2023-04-13T12:24:07.748Z,1336.00
2023-04-13T12:25:06.636Z,1416.00
2023-04-13T12:28:06.454Z,1916.00
2023-04-13T12:29:06.447Z,1716.00
2023-04-13T12:30:06.428Z,1552.00
2023-04-13T12:31:06.532Z,1264.00
2023-04-13T12:32:06.426Z,960.00
2023-04-13T12:33:06.414Z,868.00
2023-04-13T12:34:06.435Z,1012.00
2023-04-13T12:35:06.379Z,1312.00
2023-04-13T12:36:06.392Z,1160.00
2023-04-13T12:37:06.398Z,992.00
2023-04-13T12:38:06.346Z,996.00
2023-04-13T12:39:06.347Z,904.00
2023-04-13T12:40:06.334Z,832.00
2023-04-13T12:41:06.351Z,792.00
2023-04-13T12:42:06.436Z,816.00
2023-04-13T12:43:06.292Z,916.00
2023-04-13T12:44:06.298Z,1396.00
2023-04-13T12:45:06.272Z,1196.00